sensor_id;sensor_type;location;lat;lon;timestamp;temperature;humidity
1461;DHT22;724;49.910;12.530;2022-10-19T00:02:21;10.40;99.90
1461;DHT22;724;49.910;12.530;2022-10-19T00:04:48;10.40;99.90
1461;DHT22;724;49.910;12.530;2022-10-19T00:07:16;10.50;99.90
1461;DHT22;724;49.910;12.530;2022-10-19T00:09:43;10.50;99.90
1461;DHT22;724;49.910;12.530;2022-10-19T00:12:11;10.40;99.90
1461;DHT22;724;49.910;12.530;2022-10-19T00:14:38;10.40;99.90
1461;DHT22;724;49.910;12.530;2022-10-19T00:17:04;10.40;99.90
1461;DHT22;724;49.910;12.530;2022-10-19T00:19:31;10.40;99.90
1461;DHT22;724;49.910;12.530;2022-10-19T00:21:58;10.40;99.90
1461;DHT22;724;49.910;12.530;2022-10-19T00:24:26;10.40;99.90
1461;DHT22;724;49.910;12.530;2022-10-19T00:26:53;10.40;99.90
1461;DHT22;724;49.910;12.530;2022-10-19T00:29:20;10.40;99.90
1461;DHT22;724;49.910;12.530;2022-10-19T00:31:48;10.40;99.90
1461;DHT22;724;49.910;12.530;2022-10-19T00:34:15;10.40;99.90
1461;DHT22;724;49.910;12.530;2022-10-19T00:36:42;10.40;99.90
1461;DHT22;724;49.910;12.530;2022-10-19T00:39:10;10.40;99.90
1461;DHT22;724;49.910;12.530;2022-10-19T00:41:39;10.40;99.90
1461;DHT22;724;49.910;12.530;2022-10-19T00:46:48;10.60;99.90
1461;DHT22;724;49.910;12.530;2022-10-19T00:49:20;10.40;99.90
1461;DHT22;724;49.910;12.530;2022-10-19T00:51:48;10.40;99.90
1461;DHT22;724;49.910;12.530;2022-10-19T00:54:16;10.30;99.90
1461;DHT22;724;49.910;12.530;2022-10-19T00:56:46;10.40;99.90
1461;DHT22;724;49.910;12.530;2022-10-19T00:59:16;10.40;99.90
1461;DHT22;724;49.910;12.530;2022-10-19T01:01:45;10.40;99.90
1461;DHT22;724;49.910;12.530;2022-10-19T01:06:47;10.30;90.20
1461;DHT22;724;49.910;12.530;2022-10-19T01:09:14;10.40;96.70
1461;DHT22;724;49.910;12.530;2022-10-19T01:11:49;10.30;99.90
1461;DHT22;724;49.910;12.530;2022-10-19T01:14:27;10.30;99.90
1461;DHT22;724;49.910;12.530;2022-10-19T01:17:04;10.30;99.90
1461;DHT22;724;49.910;12.530;2022-10-19T01:20:04;10.30;99.90
1461;DHT22;724;49.910;12.530;2022-10-19T01:22:47;10.40;99.90
1461;DHT22;724;49.910;12.530;2022-10-19T01:25:22;10.40;99.90
1461;DHT22;724;49.910;12.530;2022-10-19T01:28:08;10.40;99.90
1461;DHT22;724;49.910;12.530;2022-10-19T01:30:46;10.40;99.90
1461;DHT22;724;49.910;12.530;2022-10-19T01:33:24;10.30;99.90
1461;DHT22;724;49.910;12.530;2022-10-19T01:36:03;10.30;99.90
1461;DHT22;724;49.910;12.530;2022-10-19T01:38:36;10.20;99.90
1461;DHT22;724;49.910;12.530;2022-10-19T01:41:14;10.10;99.90
1461;DHT22;724;49.910;12.530;2022-10-19T01:43:44;10.00;99.90
1461;DHT22;724;49.910;12.530;2022-10-19T01:46:18;10.00;99.90
1461;DHT22;724;49.910;12.530;2022-10-19T01:48:51;10.00;99.90
1461;DHT22;724;49.910;12.530;2022-10-19T01:51:23;9.90;99.90
1461;DHT22;724;49.910;12.530;2022-10-19T01:53:54;10.00;99.90
1461;DHT22;724;49.910;12.530;2022-10-19T01:56:25;10.00;99.90
1461;DHT22;724;49.910;12.530;2022-10-19T01:58:55;10.00;99.90
1461;DHT22;724;49.910;12.530;2022-10-19T02:01:26;10.00;99.90
1461;DHT22;724;49.910;12.530;2022-10-19T02:04:01;9.90;99.90
1461;DHT22;724;49.910;12.530;2022-10-19T02:06:36;9.80;99.90
1461;DHT22;724;49.910;12.530;2022-10-19T02:09:08;9.80;99.90
1461;DHT22;724;49.910;12.530;2022-10-19T02:11:44;9.80;99.90
1461;DHT22;724;49.910;12.530;2022-10-19T02:14:13;9.80;99.90
1461;DHT22;724;49.910;12.530;2022-10-19T02:16:45;9.80;99.90
1461;DHT22;724;49.910;12.530;2022-10-19T02:19:14;9.90;99.90
1461;DHT22;724;49.910;12.530;2022-10-19T02:21:41;9.80;99.90
1461;DHT22;724;49.910;12.530;2022-10-19T02:24:08;9.70;99.90
1461;DHT22;724;49.910;12.530;2022-10-19T02:26:35;9.70;99.90
1461;DHT22;724;49.910;12.530;2022-10-19T02:29:02;9.70;99.90
1461;DHT22;724;49.910;12.530;2022-10-19T02:31:29;9.70;99.90
1461;DHT22;724;49.910;12.530;2022-10-19T02:33:57;9.80;99.90
1461;DHT22;724;49.910;12.530;2022-10-19T02:36:24;9.80;99.90
1461;DHT22;724;49.910;12.530;2022-10-19T02:38:51;9.70;99.90
1461;DHT22;724;49.910;12.530;2022-10-19T02:41:21;9.70;99.90
1461;DHT22;724;49.910;12.530;2022-10-19T02:43:51;9.60;99.90
1461;DHT22;724;49.910;12.530;2022-10-19T02:46:23;9.60;99.90
1461;DHT22;724;49.910;12.530;2022-10-19T02:48:52;9.50;99.90
1461;DHT22;724;49.910;12.530;2022-10-19T02:51:29;9.50;99.90
1461;DHT22;724;49.910;12.530;2022-10-19T02:53:56;9.40;99.90
1461;DHT22;724;49.910;12.530;2022-10-19T02:56:23;9.50;99.90
1461;DHT22;724;49.910;12.530;2022-10-19T02:58:50;9.30;99.90
1461;DHT22;724;49.910;12.530;2022-10-19T03:01:17;9.50;99.90
1461;DHT22;724;49.910;12.530;2022-10-19T03:03:45;9.60;99.90
1461;DHT22;724;49.910;12.530;2022-10-19T03:06:12;9.70;99.90
1461;DHT22;724;49.910;12.530;2022-10-19T03:08:40;9.70;99.90
1461;DHT22;724;49.910;12.530;2022-10-19T03:11:06;9.80;99.90
1461;DHT22;724;49.910;12.530;2022-10-19T03:13:33;9.90;99.90
1461;DHT22;724;49.910;12.530;2022-10-19T03:16:05;9.90;99.90
1461;DHT22;724;49.910;12.530;2022-10-19T03:18:32;10.00;99.90
1461;DHT22;724;49.910;12.530;2022-10-19T03:21:04;9.90;99.90
1461;DHT22;724;49.910;12.530;2022-10-19T03:23:31;10.00;99.90
1461;DHT22;724;49.910;12.530;2022-10-19T03:25:59;9.90;99.90
1461;DHT22;724;49.910;12.530;2022-10-19T03:28:26;9.90;99.90
1461;DHT22;724;49.910;12.530;2022-10-19T03:30:53;9.90;99.90
1461;DHT22;724;49.910;12.530;2022-10-19T03:33:19;9.80;99.90
1461;DHT22;724;49.910;12.530;2022-10-19T03:35:46;9.90;99.90
1461;DHT22;724;49.910;12.530;2022-10-19T03:38:13;9.90;99.90
1461;DHT22;724;49.910;12.530;2022-10-19T03:40:40;9.70;99.90
1461;DHT22;724;49.910;12.530;2022-10-19T03:43:08;9.60;99.90
1461;DHT22;724;49.910;12.530;2022-10-19T03:45:35;9.60;99.90
1461;DHT22;724;49.910;12.530;2022-10-19T03:48:01;9.60;99.90
1461;DHT22;724;49.910;12.530;2022-10-19T03:50:28;9.50;99.90
1461;DHT22;724;49.910;12.530;2022-10-19T03:52:55;9.40;99.90
1461;DHT22;724;49.910;12.530;2022-10-19T03:55:21;9.30;99.90
1461;DHT22;724;49.910;12.530;2022-10-19T03:57:48;9.20;99.90
1461;DHT22;724;49.910;12.530;2022-10-19T04:00:16;9.00;99.90
1461;DHT22;724;49.910;12.530;2022-10-19T04:02:44;9.00;99.90
1461;DHT22;724;49.910;12.530;2022-10-19T04:05:30;9.00;99.90
1461;DHT22;724;49.910;12.530;2022-10-19T04:08:03;8.80;99.90
1461;DHT22;724;49.910;12.530;2022-10-19T04:10:30;8.70;99.90
1461;DHT22;724;49.910;12.530;2022-10-19T04:12:57;8.50;99.90
1461;DHT22;724;49.910;12.530;2022-10-19T04:15:25;8.50;99.90
1461;DHT22;724;49.910;12.530;2022-10-19T04:17:52;8.40;99.90
1461;DHT22;724;49.910;12.530;2022-10-19T04:20:18;8.40;99.90
1461;DHT22;724;49.910;12.530;2022-10-19T04:22:45;8.40;99.90
1461;DHT22;724;49.910;12.530;2022-10-19T04:25:12;8.20;99.90
1461;DHT22;724;49.910;12.530;2022-10-19T04:27:39;8.00;99.90
1461;DHT22;724;49.910;12.530;2022-10-19T04:30:06;8.00;99.90
1461;DHT22;724;49.910;12.530;2022-10-19T04:32:34;7.80;99.90
1461;DHT22;724;49.910;12.530;2022-10-19T04:35:01;7.70;99.90
1461;DHT22;724;49.910;12.530;2022-10-19T04:37:28;7.70;99.90
1461;DHT22;724;49.910;12.530;2022-10-19T04:39:54;7.70;99.90
1461;DHT22;724;49.910;12.530;2022-10-19T04:42:21;7.60;99.90
1461;DHT22;724;49.910;12.530;2022-10-19T04:44:48;7.60;99.90
1461;DHT22;724;49.910;12.530;2022-10-19T04:47:15;7.40;99.90
1461;DHT22;724;49.910;12.530;2022-10-19T04:49:43;7.30;99.90
1461;DHT22;724;49.910;12.530;2022-10-19T04:52:10;7.30;99.90
1461;DHT22;724;49.910;12.530;2022-10-19T04:54:36;7.30;99.90
1461;DHT22;724;49.910;12.530;2022-10-19T04:57:03;7.20;99.90
1461;DHT22;724;49.910;12.530;2022-10-19T04:59:30;7.30;99.90
1461;DHT22;724;49.910;12.530;2022-10-19T05:01:57;7.20;99.90
1461;DHT22;724;49.910;12.530;2022-10-19T05:04:23;7.20;99.90
1461;DHT22;724;49.910;12.530;2022-10-19T05:06:51;7.20;99.90
1461;DHT22;724;49.910;12.530;2022-10-19T05:09:18;7.40;99.90
1461;DHT22;724;49.910;12.530;2022-10-19T05:11:48;7.50;99.90
1461;DHT22;724;49.910;12.530;2022-10-19T05:14:14;7.60;99.90
1461;DHT22;724;49.910;12.530;2022-10-19T05:16:41;7.70;99.90
1461;DHT22;724;49.910;12.530;2022-10-19T05:19:12;7.80;99.90
1461;DHT22;724;49.910;12.530;2022-10-19T05:21:39;8.00;99.90
1461;DHT22;724;49.910;12.530;2022-10-19T05:24:10;8.10;99.90
1461;DHT22;724;49.910;12.530;2022-10-19T05:26:37;8.20;99.90
1461;DHT22;724;49.910;12.530;2022-10-19T05:29:04;8.20;99.90
1461;DHT22;724;49.910;12.530;2022-10-19T05:31:32;8.20;99.90
1461;DHT22;724;49.910;12.530;2022-10-19T05:34:00;8.10;99.90
1461;DHT22;724;49.910;12.530;2022-10-19T05:36:29;8.10;99.90
1461;DHT22;724;49.910;12.530;2022-10-19T05:39:00;8.00;99.90
1461;DHT22;724;49.910;12.530;2022-10-19T05:41:28;8.00;99.90
1461;DHT22;724;49.910;12.530;2022-10-19T05:43:56;8.00;99.90
1461;DHT22;724;49.910;12.530;2022-10-19T05:46:25;8.00;99.90
1461;DHT22;724;49.910;12.530;2022-10-19T05:48:54;8.00;99.90
1461;DHT22;724;49.910;12.530;2022-10-19T05:51:22;8.10;99.90
1461;DHT22;724;49.910;12.530;2022-10-19T05:53:49;8.10;99.90
1461;DHT22;724;49.910;12.530;2022-10-19T05:56:19;8.30;99.90
1461;DHT22;724;49.910;12.530;2022-10-19T05:58:48;8.40;99.90
1461;DHT22;724;49.910;12.530;2022-10-19T06:01:16;8.40;99.90
1461;DHT22;724;49.910;12.530;2022-10-19T06:03:43;8.50;99.90
1461;DHT22;724;49.910;12.530;2022-10-19T06:06:10;8.50;99.90
1461;DHT22;724;49.910;12.530;2022-10-19T06:08:38;8.60;99.90
1461;DHT22;724;49.910;12.530;2022-10-19T06:11:06;8.60;99.90
1461;DHT22;724;49.910;12.530;2022-10-19T06:13:34;8.70;99.90
1461;DHT22;724;49.910;12.530;2022-10-19T06:16:02;8.70;99.90
1461;DHT22;724;49.910;12.530;2022-10-19T06:18:29;9.00;99.90
1461;DHT22;724;49.910;12.530;2022-10-19T06:21:00;9.00;99.90
1461;DHT22;724;49.910;12.530;2022-10-19T06:23:28;9.00;99.90
1461;DHT22;724;49.910;12.530;2022-10-19T06:25:55;9.00;99.90
1461;DHT22;724;49.910;12.530;2022-10-19T06:28:21;9.00;99.90
1461;DHT22;724;49.910;12.530;2022-10-19T06:30:48;9.00;99.90
1461;DHT22;724;49.910;12.530;2022-10-19T06:33:16;9.10;99.90
1461;DHT22;724;49.910;12.530;2022-10-19T06:35:43;9.10;99.90
1461;DHT22;724;49.910;12.530;2022-10-19T06:38:10;9.20;99.90
1461;DHT22;724;49.910;12.530;2022-10-19T06:40:38;9.40;99.90
1461;DHT22;724;49.910;12.530;2022-10-19T06:43:05;11.60;99.90
1461;DHT22;724;49.910;12.530;2022-10-19T06:45:35;12.90;1.00
1461;DHT22;724;49.910;12.530;2022-10-19T06:48:02;14.30;99.90
1461;DHT22;724;49.910;12.530;2022-10-19T06:50:31;13.10;1.00
1461;DHT22;724;49.910;12.530;2022-10-19T06:52:58;12.00;1.00
1461;DHT22;724;49.910;12.530;2022-10-19T06:55:25;10.90;1.00
1461;DHT22;724;49.910;12.530;2022-10-19T06:57:52;10.50;1.00
1461;DHT22;724;49.910;12.530;2022-10-19T07:00:19;10.00;1.00
1461;DHT22;724;49.910;12.530;2022-10-19T07:02:45;9.80;1.00
1461;DHT22;724;49.910;12.530;2022-10-19T07:05:12;9.60;99.90
1461;DHT22;724;49.910;12.530;2022-10-19T07:07:40;9.60;1.00
1461;DHT22;724;49.910;12.530;2022-10-19T07:10:08;9.70;1.00
1461;DHT22;724;49.910;12.530;2022-10-19T07:12:34;9.70;1.00
1461;DHT22;724;49.910;12.530;2022-10-19T07:15:04;9.60;1.00
1461;DHT22;724;49.910;12.530;2022-10-19T07:17:31;9.60;99.90
1461;DHT22;724;49.910;12.530;2022-10-19T07:19:57;9.70;99.90
1461;DHT22;724;49.910;12.530;2022-10-19T07:22:24;9.80;99.90
1461;DHT22;724;49.910;12.530;2022-10-19T07:24:52;10.00;1.00
1461;DHT22;724;49.910;12.530;2022-10-19T07:27:19;10.00;1.00
1461;DHT22;724;49.910;12.530;2022-10-19T07:29:46;10.20;1.00
1461;DHT22;724;49.910;12.530;2022-10-19T07:32:12;11.20;1.00
1461;DHT22;724;49.910;12.530;2022-10-19T07:34:39;11.30;1.00
1461;DHT22;724;49.910;12.530;2022-10-19T07:37:06;11.40;1.00
1461;DHT22;724;49.910;12.530;2022-10-19T07:39:35;11.50;95.10
1461;DHT22;724;49.910;12.530;2022-10-19T07:42:03;11.50;37.90
1461;DHT22;724;49.910;12.530;2022-10-19T07:44:30;11.50;1.00
1461;DHT22;724;49.910;12.530;2022-10-19T07:46:57;11.30;1.00
1461;DHT22;724;49.910;12.530;2022-10-19T07:49:24;11.20;1.00
1461;DHT22;724;49.910;12.530;2022-10-19T07:51:51;11.10;1.00
1461;DHT22;724;49.910;12.530;2022-10-19T07:54:19;11.20;1.00
1461;DHT22;724;49.910;12.530;2022-10-19T07:56:47;11.20;1.00
1461;DHT22;724;49.910;12.530;2022-10-19T07:59:15;11.00;1.00
1461;DHT22;724;49.910;12.530;2022-10-19T08:01:42;11.20;1.00
1461;DHT22;724;49.910;12.530;2022-10-19T08:04:09;11.20;1.00
1461;DHT22;724;49.910;12.530;2022-10-19T08:06:36;11.20;1.00
1461;DHT22;724;49.910;12.530;2022-10-19T08:09:03;11.00;1.00
1461;DHT22;724;49.910;12.530;2022-10-19T08:11:31;10.80;1.00
1461;DHT22;724;49.910;12.530;2022-10-19T08:13:58;10.90;1.00
1461;DHT22;724;49.910;12.530;2022-10-19T08:16:30;10.80;1.00
1461;DHT22;724;49.910;12.530;2022-10-19T08:18:59;10.80;1.00
1461;DHT22;724;49.910;12.530;2022-10-19T08:21:27;11.80;1.00
1461;DHT22;724;49.910;12.530;2022-10-19T08:23:55;13.50;99.90
1461;DHT22;724;49.910;12.530;2022-10-19T08:26:22;13.10;1.00
1461;DHT22;724;49.910;12.530;2022-10-19T08:28:49;12.50;1.00
1461;DHT22;724;49.910;12.530;2022-10-19T08:31:17;12.40;1.00
1461;DHT22;724;49.910;12.530;2022-10-19T08:33:47;12.60;1.00
1461;DHT22;724;49.910;12.530;2022-10-19T08:36:14;12.60;1.00
1461;DHT22;724;49.910;12.530;2022-10-19T08:38:41;13.40;1.00
1461;DHT22;724;49.910;12.530;2022-10-19T08:41:22;14.80;1.00
1461;DHT22;724;49.910;12.530;2022-10-19T08:44:13;13.90;1.00
1461;DHT22;724;49.910;12.530;2022-10-19T08:46:49;12.90;1.00
1461;DHT22;724;49.910;12.530;2022-10-19T08:49:23;12.40;1.00
1461;DHT22;724;49.910;12.530;2022-10-19T08:51:56;12.50;1.00
1461;DHT22;724;49.910;12.530;2022-10-19T08:54:29;13.50;1.00
1461;DHT22;724;49.910;12.530;2022-10-19T08:57:04;13.80;1.00
1461;DHT22;724;49.910;12.530;2022-10-19T08:59:39;16.60;1.00
1461;DHT22;724;49.910;12.530;2022-10-19T09:02:12;18.10;99.90
1461;DHT22;724;49.910;12.530;2022-10-19T09:04:45;16.10;99.90
1461;DHT22;724;49.910;12.530;2022-10-19T09:07:24;14.80;99.90
1461;DHT22;724;49.910;12.530;2022-10-19T09:09:55;13.90;99.90
1461;DHT22;724;49.910;12.530;2022-10-19T09:12:32;13.40;99.90
1461;DHT22;724;49.910;12.530;2022-10-19T09:15:02;12.90;99.90
1461;DHT22;724;49.910;12.530;2022-10-19T09:17:30;14.10;99.90
1461;DHT22;724;49.910;12.530;2022-10-19T09:20:12;13.30;99.90
1461;DHT22;724;49.910;12.530;2022-10-19T09:22:41;12.60;99.90
1461;DHT22;724;49.910;12.530;2022-10-19T09:25:13;12.40;1.00
1461;DHT22;724;49.910;12.530;2022-10-19T09:27:42;12.00;1.00
1461;DHT22;724;49.910;12.530;2022-10-19T09:30:16;12.00;1.00
1461;DHT22;724;49.910;12.530;2022-10-19T09:32:43;12.30;1.00
1461;DHT22;724;49.910;12.530;2022-10-19T09:35:22;12.50;1.00
1461;DHT22;724;49.910;12.530;2022-10-19T09:37:51;12.70;1.00
1461;DHT22;724;49.910;12.530;2022-10-19T09:40:20;14.50;99.90
1461;DHT22;724;49.910;12.530;2022-10-19T09:42:47;15.20;99.90
1461;DHT22;724;49.910;12.530;2022-10-19T09:45:31;14.00;99.90
1461;DHT22;724;49.910;12.530;2022-10-19T09:48:00;13.90;99.90
1461;DHT22;724;49.910;12.530;2022-10-19T09:50:30;13.70;99.90
1461;DHT22;724;49.910;12.530;2022-10-19T09:52:57;13.70;99.90
1461;DHT22;724;49.910;12.530;2022-10-19T09:55:28;14.10;99.90
1461;DHT22;724;49.910;12.530;2022-10-19T09:58:02;13.60;99.90
1461;DHT22;724;49.910;12.530;2022-10-19T10:00:35;13.40;99.90
1461;DHT22;724;49.910;12.530;2022-10-19T10:03:03;14.00;99.90
1461;DHT22;724;49.910;12.530;2022-10-19T10:05:33;18.10;99.90
1461;DHT22;724;49.910;12.530;2022-10-19T10:08:00;17.60;99.90
1461;DHT22;724;49.910;12.530;2022-10-19T10:10:29;17.90;99.90
1461;DHT22;724;49.910;12.530;2022-10-19T10:12:59;15.60;99.90
1461;DHT22;724;49.910;12.530;2022-10-19T10:15:29;15.60;99.90
1461;DHT22;724;49.910;12.530;2022-10-19T10:18:00;15.20;99.90
1461;DHT22;724;49.910;12.530;2022-10-19T10:20:29;14.50;99.90
1461;DHT22;724;49.910;12.530;2022-10-19T10:22:59;14.30;99.90
1461;DHT22;724;49.910;12.530;2022-10-19T10:25:29;13.90;99.90
1461;DHT22;724;49.910;12.530;2022-10-19T10:27:59;13.60;99.90
1461;DHT22;724;49.910;12.530;2022-10-19T10:30:30;13.60;99.90
1461;DHT22;724;49.910;12.530;2022-10-19T10:32:58;13.90;99.90
1461;DHT22;724;49.910;12.530;2022-10-19T10:35:30;17.20;99.90
1461;DHT22;724;49.910;12.530;2022-10-19T10:38:07;18.70;96.60
1461;DHT22;724;49.910;12.530;2022-10-19T10:40:35;16.60;67.40
1461;DHT22;724;49.910;12.530;2022-10-19T10:43:06;15.70;69.50
1461;DHT22;724;49.910;12.530;2022-10-19T10:45:37;14.50;65.60
1461;DHT22;724;49.910;12.530;2022-10-19T10:48:26;17.00;97.20
1461;DHT22;724;49.910;12.530;2022-10-19T10:50:54;19.20;32.60
1461;DHT22;724;49.910;12.530;2022-10-19T10:53:36;21.10;1.00
1461;DHT22;724;49.910;12.530;2022-10-19T10:56:05;20.70;1.00
1461;DHT22;724;49.910;12.530;2022-10-19T10:58:39;17.80;1.00
1461;DHT22;724;49.910;12.530;2022-10-19T11:01:15;16.60;1.00
1461;DHT22;724;49.910;12.530;2022-10-19T11:03:49;15.40;1.00
1461;DHT22;724;49.910;12.530;2022-10-19T11:06:20;16.50;1.00
1461;DHT22;724;49.910;12.530;2022-10-19T11:08:58;19.80;1.00
1461;DHT22;724;49.910;12.530;2022-10-19T11:11:33;21.60;1.00
1461;DHT22;724;49.910;12.530;2022-10-19T11:14:21;22.10;1.00
1461;DHT22;724;49.910;12.530;2022-10-19T11:16:52;23.30;1.00
1461;DHT22;724;49.910;12.530;2022-10-19T11:19:24;23.90;1.00
1461;DHT22;724;49.910;12.530;2022-10-19T11:21:56;22.60;1.00
1461;DHT22;724;49.910;12.530;2022-10-19T11:24:34;22.80;1.00
1461;DHT22;724;49.910;12.530;2022-10-19T11:27:14;21.90;1.00
1461;DHT22;724;49.910;12.530;2022-10-19T11:29:56;18.20;1.00
1461;DHT22;724;49.910;12.530;2022-10-19T11:32:31;18.60;1.00
1461;DHT22;724;49.910;12.530;2022-10-19T11:35:10;20.30;1.00
1461;DHT22;724;49.910;12.530;2022-10-19T11:37:48;21.30;1.00
1461;DHT22;724;49.910;12.530;2022-10-19T11:40:22;21.30;1.00
1461;DHT22;724;49.910;12.530;2022-10-19T11:42:58;21.20;1.00
1461;DHT22;724;49.910;12.530;2022-10-19T11:45:34;19.40;1.00
1461;DHT22;724;49.910;12.530;2022-10-19T11:51:00;17.50;1.00
1461;DHT22;724;49.910;12.530;2022-10-19T11:53:35;17.20;1.00
1461;DHT22;724;49.910;12.530;2022-10-19T11:56:09;16.50;1.00
1461;DHT22;724;49.910;12.530;2022-10-19T11:58:47;16.10;1.00
1461;DHT22;724;49.910;12.530;2022-10-19T12:04:42;16.20;1.00
1461;DHT22;724;49.910;12.530;2022-10-19T12:10:12;16.60;1.00
1461;DHT22;724;49.910;12.530;2022-10-19T12:12:44;16.20;1.00
1461;DHT22;724;49.910;12.530;2022-10-19T12:15:21;16.00;1.00
1461;DHT22;724;49.910;12.530;2022-10-19T12:17:51;16.10;1.00
1461;DHT22;724;49.910;12.530;2022-10-19T12:20:24;15.90;1.00
1461;DHT22;724;49.910;12.530;2022-10-19T12:22:51;15.50;1.00
1461;DHT22;724;49.910;12.530;2022-10-19T12:25:20;15.30;1.00
1461;DHT22;724;49.910;12.530;2022-10-19T12:27:49;15.20;1.00
1461;DHT22;724;49.910;12.530;2022-10-19T12:30:18;15.10;1.00
1461;DHT22;724;49.910;12.530;2022-10-19T12:32:53;15.00;1.00
1461;DHT22;724;49.910;12.530;2022-10-19T12:35:30;15.30;1.00
1461;DHT22;724;49.910;12.530;2022-10-19T12:38:05;15.50;1.00
1461;DHT22;724;49.910;12.530;2022-10-19T12:40:36;15.00;1.00
1461;DHT22;724;49.910;12.530;2022-10-19T12:43:09;15.00;1.00
1461;DHT22;724;49.910;12.530;2022-10-19T12:45:42;15.10;1.00
1461;DHT22;724;49.910;12.530;2022-10-19T12:48:21;15.00;1.00
1461;DHT22;724;49.910;12.530;2022-10-19T12:51:03;15.20;1.00
1461;DHT22;724;49.910;12.530;2022-10-19T12:53:32;15.40;1.00
1461;DHT22;724;49.910;12.530;2022-10-19T12:56:05;14.90;1.00
1461;DHT22;724;49.910;12.530;2022-10-19T12:58:38;14.70;1.00
1461;DHT22;724;49.910;12.530;2022-10-19T13:01:13;14.70;1.00
1461;DHT22;724;49.910;12.530;2022-10-19T13:03:42;14.90;1.00
1461;DHT22;724;49.910;12.530;2022-10-19T13:06:11;14.70;1.00
1461;DHT22;724;49.910;12.530;2022-10-19T13:08:41;14.00;1.00
1461;DHT22;724;49.910;12.530;2022-10-19T13:11:10;14.00;1.00
1461;DHT22;724;49.910;12.530;2022-10-19T13:14:01;14.30;1.00
1461;DHT22;724;49.910;12.530;2022-10-19T13:16:56;14.20;1.00
1461;DHT22;724;49.910;12.530;2022-10-19T13:19:24;14.30;1.00
1461;DHT22;724;49.910;12.530;2022-10-19T13:22:11;14.40;1.00
1461;DHT22;724;49.910;12.530;2022-10-19T13:27:52;13.50;1.00
1461;DHT22;724;49.910;12.530;2022-10-19T13:33:43;13.10;1.00
1461;DHT22;724;49.910;12.530;2022-10-19T13:36:12;13.60;1.00
1461;DHT22;724;49.910;12.530;2022-10-19T13:38:40;13.90;1.00
1461;DHT22;724;49.910;12.530;2022-10-19T13:41:18;13.60;1.00
1461;DHT22;724;49.910;12.530;2022-10-19T13:43:54;13.20;1.00
1461;DHT22;724;49.910;12.530;2022-10-19T13:46:37;13.40;1.00
1461;DHT22;724;49.910;12.530;2022-10-19T13:52:54;13.50;1.00
1461;DHT22;724;49.910;12.530;2022-10-19T13:55:47;13.80;1.00
1461;DHT22;724;49.910;12.530;2022-10-19T13:58:40;13.80;1.00
1461;DHT22;724;49.910;12.530;2022-10-19T14:01:21;13.90;1.00
1461;DHT22;724;49.910;12.530;2022-10-19T14:04:01;13.00;1.00
1461;DHT22;724;49.910;12.530;2022-10-19T14:06:34;13.50;1.00
1461;DHT22;724;49.910;12.530;2022-10-19T14:09:26;14.00;1.00
1461;DHT22;724;49.910;12.530;2022-10-19T14:12:00;13.50;1.00
1461;DHT22;724;49.910;12.530;2022-10-19T14:14:38;13.70;1.00
1461;DHT22;724;49.910;12.530;2022-10-19T14:17:14;13.90;1.00
1461;DHT22;724;49.910;12.530;2022-10-19T14:19:43;13.50;1.00
1461;DHT22;724;49.910;12.530;2022-10-19T14:22:25;13.00;1.00
1461;DHT22;724;49.910;12.530;2022-10-19T14:25:02;13.10;1.00
1461;DHT22;724;49.910;12.530;2022-10-19T14:27:30;13.70;1.00
1461;DHT22;724;49.910;12.530;2022-10-19T14:29:57;13.60;1.00
1461;DHT22;724;49.910;12.530;2022-10-19T14:32:26;13.80;1.00
1461;DHT22;724;49.910;12.530;2022-10-19T14:34:54;14.00;1.00
1461;DHT22;724;49.910;12.530;2022-10-19T14:37:25;14.10;1.00
1461;DHT22;724;49.910;12.530;2022-10-19T14:40:03;14.10;1.00
1461;DHT22;724;49.910;12.530;2022-10-19T14:42:36;13.70;1.00
1461;DHT22;724;49.910;12.530;2022-10-19T14:45:09;13.20;1.00
1461;DHT22;724;49.910;12.530;2022-10-19T14:47:35;12.80;1.00
1461;DHT22;724;49.910;12.530;2022-10-19T14:50:03;13.20;1.00
1461;DHT22;724;49.910;12.530;2022-10-19T14:52:33;13.40;1.00
1461;DHT22;724;49.910;12.530;2022-10-19T14:55:06;13.20;1.00
1461;DHT22;724;49.910;12.530;2022-10-19T14:57:35;13.30;1.00
1461;DHT22;724;49.910;12.530;2022-10-19T15:00:06;13.00;1.00
1461;DHT22;724;49.910;12.530;2022-10-19T15:02:37;13.00;1.00
1461;DHT22;724;49.910;12.530;2022-10-19T15:05:15;12.70;1.00
1461;DHT22;724;49.910;12.530;2022-10-19T15:07:43;12.70;1.00
1461;DHT22;724;49.910;12.530;2022-10-19T15:10:18;12.80;1.00
1461;DHT22;724;49.910;12.530;2022-10-19T15:12:47;12.90;1.00
1461;DHT22;724;49.910;12.530;2022-10-19T15:15:18;12.60;1.00
1461;DHT22;724;49.910;12.530;2022-10-19T15:17:52;12.40;1.00
1461;DHT22;724;49.910;12.530;2022-10-19T15:20:25;12.60;1.00
1461;DHT22;724;49.910;12.530;2022-10-19T15:22:53;12.40;1.00
1461;DHT22;724;49.910;12.530;2022-10-19T15:25:31;12.20;1.00
1461;DHT22;724;49.910;12.530;2022-10-19T15:28:28;12.20;1.00
1461;DHT22;724;49.910;12.530;2022-10-19T15:30:58;12.00;1.00
1461;DHT22;724;49.910;12.530;2022-10-19T15:33:26;11.90;19.10
1461;DHT22;724;49.910;12.530;2022-10-19T15:36:04;11.70;44.70
1461;DHT22;724;49.910;12.530;2022-10-19T15:38:33;11.60;86.10
1461;DHT22;724;49.910;12.530;2022-10-19T15:41:03;11.60;99.90
1461;DHT22;724;49.910;12.530;2022-10-19T15:43:42;11.30;99.90
1461;DHT22;724;49.910;12.530;2022-10-19T15:46:26;11.00;99.90
1461;DHT22;724;49.910;12.530;2022-10-19T15:48:57;10.90;99.90
1461;DHT22;724;49.910;12.530;2022-10-19T15:51:37;10.70;99.90
1461;DHT22;724;49.910;12.530;2022-10-19T15:54:06;10.50;99.90
1461;DHT22;724;49.910;12.530;2022-10-19T15:56:38;10.40;99.90
1461;DHT22;724;49.910;12.530;2022-10-19T15:59:20;10.20;99.90
1461;DHT22;724;49.910;12.530;2022-10-19T16:01:53;10.00;1.00
1461;DHT22;724;49.910;12.530;2022-10-19T16:04:22;9.80;1.00
1461;DHT22;724;49.910;12.530;2022-10-19T16:06:51;10.00;1.00
1461;DHT22;724;49.910;12.530;2022-10-19T16:09:20;10.10;1.00
1461;DHT22;724;49.910;12.530;2022-10-19T16:11:50;9.90;1.00
1461;DHT22;724;49.910;12.530;2022-10-19T16:14:21;9.60;1.00
1461;DHT22;724;49.910;12.530;2022-10-19T16:16:48;9.30;1.00
1461;DHT22;724;49.910;12.530;2022-10-19T16:19:15;9.20;1.00
1461;DHT22;724;49.910;12.530;2022-10-19T16:21:42;9.10;1.00
1461;DHT22;724;49.910;12.530;2022-10-19T16:24:09;8.90;1.00
1461;DHT22;724;49.910;12.530;2022-10-19T16:26:36;9.00;1.00
1461;DHT22;724;49.910;12.530;2022-10-19T16:29:04;9.10;1.00
1461;DHT22;724;49.910;12.530;2022-10-19T16:31:31;8.90;1.00
1461;DHT22;724;49.910;12.530;2022-10-19T16:33:58;8.70;1.00
1461;DHT22;724;49.910;12.530;2022-10-19T16:36:25;8.40;1.00
1461;DHT22;724;49.910;12.530;2022-10-19T16:38:52;8.30;99.90
1461;DHT22;724;49.910;12.530;2022-10-19T16:41:19;8.40;1.00
1461;DHT22;724;49.910;12.530;2022-10-19T16:43:46;8.50;1.00
1461;DHT22;724;49.910;12.530;2022-10-19T16:46:19;8.50;1.00
1461;DHT22;724;49.910;12.530;2022-10-19T16:48:46;8.30;1.00
1461;DHT22;724;49.910;12.530;2022-10-19T16:51:23;8.00;1.00
1461;DHT22;724;49.910;12.530;2022-10-19T16:53:52;8.10;1.00
1461;DHT22;724;49.910;12.530;2022-10-19T16:56:22;8.20;1.00
1461;DHT22;724;49.910;12.530;2022-10-19T16:58:51;8.30;1.00
1461;DHT22;724;49.910;12.530;2022-10-19T17:01:20;8.40;1.00
1461;DHT22;724;49.910;12.530;2022-10-19T17:03:47;8.40;1.00